sensor_id;sensor_type;location;lat;lon;timestamp;temperature;humidity
40816;DHT22;26535;48.788;9.214;2022-09-09T08:30:15;20.60;92.80
40816;DHT22;26535;48.788;9.214;2022-09-09T08:32:41;20.80;92.90
40816;DHT22;26535;48.788;9.214;2022-09-09T08:35:09;20.90;92.30
40816;DHT22;26535;48.788;9.214;2022-09-09T08:37:39;21.00;92.10
40816;DHT22;26535;48.788;9.214;2022-09-09T08:40:11;21.10;91.90
40816;DHT22;26535;48.788;9.214;2022-09-09T08:42:48;21.40;91.20
40816;DHT22;26535;48.788;9.214;2022-09-09T08:45:25;21.40;91.30
40816;DHT22;26535;48.788;9.214;2022-09-09T08:48:21;21.70;91.30
40816;DHT22;26535;48.788;9.214;2022-09-09T08:50:56;21.50;91.60
40816;DHT22;26535;48.788;9.214;2022-09-09T08:53:35;21.30;91.20
40816;DHT22;26535;48.788;9.214;2022-09-09T08:56:14;21.40;90.40
40816;DHT22;26535;48.788;9.214;2022-09-09T08:58:49;21.20;90.60
40816;DHT22;26535;48.788;9.214;2022-09-09T09:01:42;21.30;90.50
40816;DHT22;26535;48.788;9.214;2022-09-09T09:04:33;21.60;90.30
40816;DHT22;26535;48.788;9.214;2022-09-09T09:10:39;22.00;85.60
40816;DHT22;26535;48.788;9.214;2022-09-09T09:13:19;22.00;83.50
40816;DHT22;26535;48.788;9.214;2022-09-09T09:15:52;22.00;83.90
40816;DHT22;26535;48.788;9.214;2022-09-09T09:18:20;22.00;83.20
40816;DHT22;26535;48.788;9.214;2022-09-09T09:21:11;22.00;82.90
40816;DHT22;26535;48.788;9.214;2022-09-09T09:23:57;22.10;82.90
40816;DHT22;26535;48.788;9.214;2022-09-09T09:26:47;22.00;82.50
40816;DHT22;26535;48.788;9.214;2022-09-09T09:29:15;22.00;83.20
40816;DHT22;26535;48.788;9.214;2022-09-09T09:32:14;21.70;87.50
40816;DHT22;26535;48.788;9.214;2022-09-09T09:34:51;21.30;90.90
40816;DHT22;26535;48.788;9.214;2022-09-09T09:37:43;20.90;90.90
40816;DHT22;26535;48.788;9.214;2022-09-09T09:40:20;20.40;91.80
40816;DHT22;26535;48.788;9.214;2022-09-09T09:43:02;19.20;94.60
40816;DHT22;26535;48.788;9.214;2022-09-09T09:45:41;18.10;97.20
40816;DHT22;26535;48.788;9.214;2022-09-09T09:48:19;17.80;96.60
40816;DHT22;26535;48.788;9.214;2022-09-09T09:50:55;17.90;95.90
40816;DHT22;26535;48.788;9.214;2022-09-09T09:53:27;18.00;95.60
40816;DHT22;26535;48.788;9.214;2022-09-09T09:56:28;18.40;95.80
40816;DHT22;26535;48.788;9.214;2022-09-09T09:58:55;18.80;94.50
40816;DHT22;26535;48.788;9.214;2022-09-09T10:01:38;19.10;93.80
40816;DHT22;26535;48.788;9.214;2022-09-09T10:04:20;19.60;93.50
40816;DHT22;26535;48.788;9.214;2022-09-09T10:06:47;19.90;91.70
40816;DHT22;26535;48.788;9.214;2022-09-09T10:09:24;20.10;92.40
40816;DHT22;26535;48.788;9.214;2022-09-09T10:12:16;20.40;91.20
40816;DHT22;26535;48.788;9.214;2022-09-09T10:15:07;20.60;90.20
40816;DHT22;26535;48.788;9.214;2022-09-09T10:17:58;20.90;90.00
40816;DHT22;26535;48.788;9.214;2022-09-09T10:26:40;21.20;90.60
40816;DHT22;26535;48.788;9.214;2022-09-09T10:40:38;22.10;88.40
40816;DHT22;26535;48.788;9.214;2022-09-09T10:45:46;22.70;87.10
40816;DHT22;26535;48.788;9.214;2022-09-09T10:48:36;23.00;84.60
40816;DHT22;26535;48.788;9.214;2022-09-09T10:56:38;23.70;83.90
40816;DHT22;26535;48.788;9.214;2022-09-09T10:59:16;23.40;83.70
40816;DHT22;26535;48.788;9.214;2022-09-09T11:02:11;23.50;82.70
40816;DHT22;26535;48.788;9.214;2022-09-09T11:04:48;23.40;83.40
40816;DHT22;26535;48.788;9.214;2022-09-09T11:07:29;23.90;82.70
40816;DHT22;26535;48.788;9.214;2022-09-09T11:10:02;24.30;82.10
40816;DHT22;26535;48.788;9.214;2022-09-09T11:12:36;25.50;80.10
40816;DHT22;26535;48.788;9.214;2022-09-09T11:15:08;26.00;77.50
40816;DHT22;26535;48.788;9.214;2022-09-09T11:17:56;25.70;76.60
40816;DHT22;26535;48.788;9.214;2022-09-09T11:20:25;25.50;77.50
40816;DHT22;26535;48.788;9.214;2022-09-09T11:25:44;25.30;78.00
40816;DHT22;26535;48.788;9.214;2022-09-09T11:36:43;23.10;71.80
40816;DHT22;26535;48.788;9.214;2022-09-09T11:39:36;22.60;74.00
40816;DHT22;26535;48.788;9.214;2022-09-09T11:44:41;22.60;75.80
40816;DHT22;26535;48.788;9.214;2022-09-09T11:47:27;22.30;77.00
40816;DHT22;26535;48.788;9.214;2022-09-09T11:52:42;21.80;78.50
40816;DHT22;26535;48.788;9.214;2022-09-09T11:55:27;21.70;78.80
40816;DHT22;26535;48.788;9.214;2022-09-09T12:00:37;21.90;78.70
40816;DHT22;26535;48.788;9.214;2022-09-09T12:08:50;23.40;74.90
40816;DHT22;26535;48.788;9.214;2022-09-09T12:11:26;24.50;71.80
40816;DHT22;26535;48.788;9.214;2022-09-09T12:13:53;25.90;68.80
40816;DHT22;26535;48.788;9.214;2022-09-09T12:16:31;26.90;66.30
40816;DHT22;26535;48.788;9.214;2022-09-09T12:24:35;25.10;67.40
40816;DHT22;26535;48.788;9.214;2022-09-09T12:27:20;25.50;67.20
40816;DHT22;26535;48.788;9.214;2022-09-09T12:29:58;27.00;64.20
40816;DHT22;26535;48.788;9.214;2022-09-09T12:32:27;28.40;62.00
40816;DHT22;26535;48.788;9.214;2022-09-09T12:35:10;29.40;59.80
40816;DHT22;26535;48.788;9.214;2022-09-09T12:37:38;30.80;58.10
40816;DHT22;26535;48.788;9.214;2022-09-09T12:42:49;30.80;55.90
40816;DHT22;26535;48.788;9.214;2022-09-09T12:45:36;31.60;55.10
40816;DHT22;26535;48.788;9.214;2022-09-09T12:48:06;32.70;53.90
40816;DHT22;26535;48.788;9.214;2022-09-09T12:50:36;31.80;52.20
40816;DHT22;26535;48.788;9.214;2022-09-09T12:56:09;27.90;58.30
40816;DHT22;26535;48.788;9.214;2022-09-09T12:58:46;26.30;61.00
40816;DHT22;26535;48.788;9.214;2022-09-09T13:01:25;26.00;62.60
40816;DHT22;26535;48.788;9.214;2022-09-09T13:03:51;25.70;63.30
40816;DHT22;26535;48.788;9.214;2022-09-09T13:06:27;26.40;62.80
40816;DHT22;26535;48.788;9.214;2022-09-09T13:08:59;27.30;61.90
40816;DHT22;26535;48.788;9.214;2022-09-09T13:11:43;28.50;59.40
40816;DHT22;26535;48.788;9.214;2022-09-09T13:14:28;27.90;59.70
40816;DHT22;26535;48.788;9.214;2022-09-09T13:16:59;26.70;61.30
40816;DHT22;26535;48.788;9.214;2022-09-09T13:19:26;26.80;62.40
40816;DHT22;26535;48.788;9.214;2022-09-09T13:21:55;26.80;61.30
40816;DHT22;26535;48.788;9.214;2022-09-09T13:24:41;27.10;61.20
40816;DHT22;26535;48.788;9.214;2022-09-09T13:27:28;27.80;59.80
40816;DHT22;26535;48.788;9.214;2022-09-09T13:29:54;27.50;59.80
40816;DHT22;26535;48.788;9.214;2022-09-09T13:32:25;27.40;60.10
40816;DHT22;26535;48.788;9.214;2022-09-09T13:34:57;27.70;60.10
40816;DHT22;26535;48.788;9.214;2022-09-09T13:37:32;28.50;59.50
40816;DHT22;26535;48.788;9.214;2022-09-09T13:39:59;29.70;58.40
40816;DHT22;26535;48.788;9.214;2022-09-09T13:42:30;31.70;55.50
40816;DHT22;26535;48.788;9.214;2022-09-09T13:44:58;32.70;54.30
40816;DHT22;26535;48.788;9.214;2022-09-09T13:47:31;31.60;54.10
40816;DHT22;26535;48.788;9.214;2022-09-09T13:49:57;30.10;55.60
40816;DHT22;26535;48.788;9.214;2022-09-09T13:52:23;28.70;56.00
40816;DHT22;26535;48.788;9.214;2022-09-09T13:54:50;27.10;58.20
40816;DHT22;26535;48.788;9.214;2022-09-09T13:57:25;26.50;58.70
40816;DHT22;26535;48.788;9.214;2022-09-09T13:59:52;26.00;60.50
40816;DHT22;26535;48.788;9.214;2022-09-09T14:02:20;25.90;61.40
40816;DHT22;26535;48.788;9.214;2022-09-09T14:04:48;26.20;62.90
40816;DHT22;26535;48.788;9.214;2022-09-09T14:07:17;28.60;58.80
40816;DHT22;26535;48.788;9.214;2022-09-09T14:09:44;30.60;55.00
40816;DHT22;26535;48.788;9.214;2022-09-09T14:12:14;31.80;53.90
40816;DHT22;26535;48.788;9.214;2022-09-09T14:14:41;31.00;54.60
40816;DHT22;26535;48.788;9.214;2022-09-09T14:17:08;30.30;55.30
40816;DHT22;26535;48.788;9.214;2022-09-09T14:19:33;30.70;54.60
40816;DHT22;26535;48.788;9.214;2022-09-09T14:21:59;30.70;53.70
40816;DHT22;26535;48.788;9.214;2022-09-09T14:24:27;30.50;54.30
40816;DHT22;26535;48.788;9.214;2022-09-09T14:26:53;31.00;53.30
40816;DHT22;26535;48.788;9.214;2022-09-09T14:29:19;31.80;52.90
40816;DHT22;26535;48.788;9.214;2022-09-09T14:31:45;32.40;51.60
40816;DHT22;26535;48.788;9.214;2022-09-09T14:34:11;30.80;53.10
40816;DHT22;26535;48.788;9.214;2022-09-09T14:36:37;29.40;54.20
40816;DHT22;26535;48.788;9.214;2022-09-09T14:39:03;28.30;56.00
40816;DHT22;26535;48.788;9.214;2022-09-09T14:41:30;29.00;56.10
40816;DHT22;26535;48.788;9.214;2022-09-09T14:43:56;28.90;56.00
40816;DHT22;26535;48.788;9.214;2022-09-09T14:46:22;28.10;56.30
40816;DHT22;26535;48.788;9.214;2022-09-09T14:48:48;27.40;57.10
40816;DHT22;26535;48.788;9.214;2022-09-09T14:51:20;26.90;57.70
40816;DHT22;26535;48.788;9.214;2022-09-09T14:53:48;26.80;58.00
40816;DHT22;26535;48.788;9.214;2022-09-09T14:56:20;26.70;58.40
40816;DHT22;26535;48.788;9.214;2022-09-09T14:58:47;26.70;58.20
40816;DHT22;26535;48.788;9.214;2022-09-09T15:01:16;27.40;58.00
40816;DHT22;26535;48.788;9.214;2022-09-09T15:03:43;29.30;55.10
40816;DHT22;26535;48.788;9.214;2022-09-09T15:06:11;29.90;53.60
40816;DHT22;26535;48.788;9.214;2022-09-09T15:08:38;31.50;51.70
40816;DHT22;26535;48.788;9.214;2022-09-09T15:11:06;31.10;51.70
40816;DHT22;26535;48.788;9.214;2022-09-09T15:13:36;30.80;51.50
40816;DHT22;26535;48.788;9.214;2022-09-09T15:16:26;30.90;51.40
40816;DHT22;26535;48.788;9.214;2022-09-09T15:18:55;32.10;50.70
40816;DHT22;26535;48.788;9.214;2022-09-09T15:21:24;30.90;51.10
40816;DHT22;26535;48.788;9.214;2022-09-09T15:23:50;29.20;53.00
40816;DHT22;26535;48.788;9.214;2022-09-09T15:26:17;27.60;55.10
40816;DHT22;26535;48.788;9.214;2022-09-09T15:28:45;26.70;56.70
40816;DHT22;26535;48.788;9.214;2022-09-09T15:31:24;26.00;57.80
40816;DHT22;26535;48.788;9.214;2022-09-09T15:34:03;25.70;58.60
40816;DHT22;26535;48.788;9.214;2022-09-09T15:36:33;26.20;58.70
40816;DHT22;26535;48.788;9.214;2022-09-09T15:39:00;27.50;56.50
40816;DHT22;26535;48.788;9.214;2022-09-09T15:41:26;27.00;56.80
40816;DHT22;26535;48.788;9.214;2022-09-09T15:43:55;26.50;57.50
40816;DHT22;26535;48.788;9.214;2022-09-09T15:46:42;25.70;58.70
40816;DHT22;26535;48.788;9.214;2022-09-09T15:49:13;25.30;60.10
40816;DHT22;26535;48.788;9.214;2022-09-09T15:51:42;24.70;60.70
40816;DHT22;26535;48.788;9.214;2022-09-09T15:54:13;24.30;62.10
40816;DHT22;26535;48.788;9.214;2022-09-09T15:56:39;24.00;63.00
40816;DHT22;26535;48.788;9.214;2022-09-09T15:59:05;23.90;63.40
40816;DHT22;26535;48.788;9.214;2022-09-09T16:01:31;23.70;63.60
40816;DHT22;26535;48.788;9.214;2022-09-09T16:03:58;23.60;64.20
40816;DHT22;26535;48.788;9.214;2022-09-09T16:06:28;23.40;64.00
40816;DHT22;26535;48.788;9.214;2022-09-09T16:08:55;23.20;63.80
40816;DHT22;26535;48.788;9.214;2022-09-09T16:11:27;23.00;64.20
40816;DHT22;26535;48.788;9.214;2022-09-09T16:13:54;22.90;64.40
40816;DHT22;26535;48.788;9.214;2022-09-09T16:16:22;22.70;64.30
40816;DHT22;26535;48.788;9.214;2022-09-09T16:18:55;22.60;64.50
40816;DHT22;26535;48.788;9.214;2022-09-09T16:21:26;22.50;64.70
40816;DHT22;26535;48.788;9.214;2022-09-09T16:23:55;22.50;65.10
40816;DHT22;26535;48.788;9.214;2022-09-09T16:26:22;22.50;65.30
40816;DHT22;26535;48.788;9.214;2022-09-09T16:28:48;22.40;65.60
40816;DHT22;26535;48.788;9.214;2022-09-09T16:31:19;22.20;66.30
40816;DHT22;26535;48.788;9.214;2022-09-09T16:33:45;22.20;66.90
40816;DHT22;26535;48.788;9.214;2022-09-09T16:36:20;22.10;67.20
40816;DHT22;26535;48.788;9.214;2022-09-09T16:38:46;22.10;67.90
40816;DHT22;26535;48.788;9.214;2022-09-09T16:41:13;22.10;68.30
40816;DHT22;26535;48.788;9.214;2022-09-09T16:43:40;22.00;68.60
40816;DHT22;26535;48.788;9.214;2022-09-09T16:46:18;22.00;69.70
40816;DHT22;26535;48.788;9.214;2022-09-09T16:48:45;21.90;70.50
40816;DHT22;26535;48.788;9.214;2022-09-09T16:51:23;21.60;71.20
40816;DHT22;26535;48.788;9.214;2022-09-09T16:53:50;21.40;71.40
40816;DHT22;26535;48.788;9.214;2022-09-09T16:56:23;21.20;71.40
40816;DHT22;26535;48.788;9.214;2022-09-09T16:59:03;21.20;71.00
40816;DHT22;26535;48.788;9.214;2022-09-09T17:01:32;21.00;73.00
40816;DHT22;26535;48.788;9.214;2022-09-09T17:04:01;20.70;71.90
40816;DHT22;26535;48.788;9.214;2022-09-09T17:06:30;20.50;72.40
40816;DHT22;26535;48.788;9.214;2022-09-09T17:08:59;20.20;72.80
40816;DHT22;26535;48.788;9.214;2022-09-09T17:11:27;20.10;73.20
40816;DHT22;26535;48.788;9.214;2022-09-09T17:13:54;19.90;74.00
40816;DHT22;26535;48.788;9.214;2022-09-09T17:16:22;19.80;74.80
40816;DHT22;26535;48.788;9.214;2022-09-09T17:18:50;19.80;75.20
40816;DHT22;26535;48.788;9.214;2022-09-09T17:21:19;19.70;75.50
40816;DHT22;26535;48.788;9.214;2022-09-09T17:23:46;19.60;76.00
40816;DHT22;26535;48.788;9.214;2022-09-09T17:26:14;19.50;76.70
40816;DHT22;26535;48.788;9.214;2022-09-09T17:28:41;19.40;77.20
40816;DHT22;26535;48.788;9.214;2022-09-09T17:31:08;19.20;77.90
40816;DHT22;26535;48.788;9.214;2022-09-09T17:33:36;19.20;78.40
40816;DHT22;26535;48.788;9.214;2022-09-09T17:36:09;19.10;78.70
40816;DHT22;26535;48.788;9.214;2022-09-09T17:38:35;19.00;79.30
40816;DHT22;26535;48.788;9.214;2022-09-09T17:41:31;18.90;79.60
40816;DHT22;26535;48.788;9.214;2022-09-09T17:43:58;18.90;80.10
40816;DHT22;26535;48.788;9.214;2022-09-09T17:46:29;18.80;80.80
40816;DHT22;26535;48.788;9.214;2022-09-09T17:48:57;18.70;81.00
40816;DHT22;26535;48.788;9.214;2022-09-09T17:51:26;18.70;81.60
40816;DHT22;26535;48.788;9.214;2022-09-09T17:54:05;18.70;81.60
40816;DHT22;26535;48.788;9.214;2022-09-09T17:56:36;18.80;81.90
40816;DHT22;26535;48.788;9.214;2022-09-09T17:59:03;18.80;82.40
40816;DHT22;26535;48.788;9.214;2022-09-09T18:01:32;18.80;82.60
40816;DHT22;26535;48.788;9.214;2022-09-09T18:04:00;18.80;82.90
40816;DHT22;26535;48.788;9.214;2022-09-09T18:06:30;18.70;83.10
40816;DHT22;26535;48.788;9.214;2022-09-09T18:09:05;18.60;83.70
40816;DHT22;26535;48.788;9.214;2022-09-09T18:11:37;18.60;84.00
40816;DHT22;26535;48.788;9.214;2022-09-09T18:14:07;18.60;84.40
40816;DHT22;26535;48.788;9.214;2022-09-09T18:16:36;18.60;84.30
40816;DHT22;26535;48.788;9.214;2022-09-09T18:19:06;18.60;84.60
40816;DHT22;26535;48.788;9.214;2022-09-09T18:21:34;18.70;84.40
40816;DHT22;26535;48.788;9.214;2022-09-09T18:24:02;18.70;84.50
40816;DHT22;26535;48.788;9.214;2022-09-09T18:26:28;18.60;84.80
40816;DHT22;26535;48.788;9.214;2022-09-09T18:28:55;18.70;85.00
40816;DHT22;26535;48.788;9.214;2022-09-09T18:31:23;18.60;85.30
40816;DHT22;26535;48.788;9.214;2022-09-09T18:33:51;18.60;85.30
40816;DHT22;26535;48.788;9.214;2022-09-09T18:36:21;18.60;85.30
40816;DHT22;26535;48.788;9.214;2022-09-09T18:38:51;18.60;85.80
40816;DHT22;26535;48.788;9.214;2022-09-09T18:41:20;18.60;86.30
40816;DHT22;26535;48.788;9.214;2022-09-09T18:43:51;18.60;86.70
40816;DHT22;26535;48.788;9.214;2022-09-09T18:46:18;18.50;86.20
40816;DHT22;26535;48.788;9.214;2022-09-09T18:48:45;18.50;86.10
40816;DHT22;26535;48.788;9.214;2022-09-09T18:51:13;18.50;86.20
40816;DHT22;26535;48.788;9.214;2022-09-09T18:53:39;18.50;86.10
40816;DHT22;26535;48.788;9.214;2022-09-09T18:56:11;18.50;86.40
40816;DHT22;26535;48.788;9.214;2022-09-09T18:58:37;18.50;86.70
40816;DHT22;26535;48.788;9.214;2022-09-09T19:01:04;18.40;86.80
40816;DHT22;26535;48.788;9.214;2022-09-09T19:03:34;18.40;87.30
40816;DHT22;26535;48.788;9.214;2022-09-09T19:06:06;18.40;86.90
40816;DHT22;26535;48.788;9.214;2022-09-09T19:08:36;18.30;87.30
40816;DHT22;26535;48.788;9.214;2022-09-09T19:11:03;18.40;87.30
40816;DHT22;26535;48.788;9.214;2022-09-09T19:13:30;18.30;87.50
40816;DHT22;26535;48.788;9.214;2022-09-09T19:16:06;18.20;87.70
40816;DHT22;26535;48.788;9.214;2022-09-09T19:18:32;18.10;88.30
40816;DHT22;26535;48.788;9.214;2022-09-09T19:21:17;18.10;88.80
40816;DHT22;26535;48.788;9.214;2022-09-09T19:23:45;18.00;89.30
40816;DHT22;26535;48.788;9.214;2022-09-09T19:26:11;17.90;89.90
40816;DHT22;26535;48.788;9.214;2022-09-09T19:28:41;17.90;90.00
40816;DHT22;26535;48.788;9.214;2022-09-09T19:31:10;17.90;90.10
40816;DHT22;26535;48.788;9.214;2022-09-09T19:33:37;17.80;90.20
40816;DHT22;26535;48.788;9.214;2022-09-09T19:36:05;17.80;90.30
40816;DHT22;26535;48.788;9.214;2022-09-09T19:38:32;17.70;90.40
40816;DHT22;26535;48.788;9.214;2022-09-09T19:41:06;17.80;90.50
40816;DHT22;26535;48.788;9.214;2022-09-09T19:43:32;17.80;90.50
40816;DHT22;26535;48.788;9.214;2022-09-09T19:46:05;17.70;90.60
40816;DHT22;26535;48.788;9.214;2022-09-09T19:48:33;17.70;90.70
40816;DHT22;26535;48.788;9.214;2022-09-09T19:51:08;17.70;90.80
40816;DHT22;26535;48.788;9.214;2022-09-09T19:53:37;17.60;90.80
40816;DHT22;26535;48.788;9.214;2022-09-09T19:56:03;17.60;90.80
40816;DHT22;26535;48.788;9.214;2022-09-09T19:58:30;17.50;91.00
40816;DHT22;26535;48.788;9.214;2022-09-09T20:03:39;17.40;91.30
40816;DHT22;26535;48.788;9.214;2022-09-09T20:06:07;17.40;91.10
40816;DHT22;26535;48.788;9.214;2022-09-09T20:08:34;17.50;91.00
40816;DHT22;26535;48.788;9.214;2022-09-09T20:11:01;17.40;91.20
40816;DHT22;26535;48.788;9.214;2022-09-09T20:13:29;17.40;91.20
40816;DHT22;26535;48.788;9.214;2022-09-09T20:16:02;17.30;91.30
40816;DHT22;26535;48.788;9.214;2022-09-09T20:18:29;17.40;91.30
40816;DHT22;26535;48.788;9.214;2022-09-09T20:21:04;17.40;91.30
40816;DHT22;26535;48.788;9.214;2022-09-09T20:23:30;17.40;91.30
40816;DHT22;26535;48.788;9.214;2022-09-09T20:26:00;17.20;91.30
40816;DHT22;26535;48.788;9.214;2022-09-09T20:28:27;17.10;91.80
40816;DHT22;26535;48.788;9.214;2022-09-09T20:30:54;17.00;91.80
40816;DHT22;26535;48.788;9.214;2022-09-09T20:33:19;17.10;92.00
40816;DHT22;26535;48.788;9.214;2022-09-09T20:35:46;17.00;91.90
40816;DHT22;26535;48.788;9.214;2022-09-09T20:38:13;17.00;92.10
40816;DHT22;26535;48.788;9.214;2022-09-09T20:40:39;16.90;92.30
40816;DHT22;26535;48.788;9.214;2022-09-09T20:43:06;17.00;92.20
40816;DHT22;26535;48.788;9.214;2022-09-09T20:45:55;16.90;92.40
40816;DHT22;26535;48.788;9.214;2022-09-09T20:48:41;16.90;92.40
40816;DHT22;26535;48.788;9.214;2022-09-09T20:51:27;17.00;92.30
40816;DHT22;26535;48.788;9.214;2022-09-09T20:54:06;17.10;92.20
40816;DHT22;26535;48.788;9.214;2022-09-09T20:56:36;17.10;92.30
40816;DHT22;26535;48.788;9.214;2022-09-09T20:59:04;17.00;92.20
40816;DHT22;26535;48.788;9.214;2022-09-09T21:01:30;17.00;92.40
40816;DHT22;26535;48.788;9.214;2022-09-09T21:03:55;16.90;92.60
40816;DHT22;26535;48.788;9.214;2022-09-09T21:06:21;16.90;92.70
40816;DHT22;26535;48.788;9.214;2022-09-09T21:08:48;16.80;92.70
40816;DHT22;26535;48.788;9.214;2022-09-09T21:11:13;16.90;92.70
40816;DHT22;26535;48.788;9.214;2022-09-09T21:13:40;16.80;92.70
40816;DHT22;26535;48.788;9.214;2022-09-09T21:16:08;16.80;92.80
40816;DHT22;26535;48.788;9.214;2022-09-09T21:18:35;16.80;92.80
40816;DHT22;26535;48.788;9.214;2022-09-09T21:21:02;16.80;92.90
40816;DHT22;26535;48.788;9.214;2022-09-09T21:23:28;16.70;93.00
40816;DHT22;26535;48.788;9.214;2022-09-09T21:25:54;16.60;93.20
40816;DHT22;26535;48.788;9.214;2022-09-09T21:28:20;16.50;93.40
40816;DHT22;26535;48.788;9.214;2022-09-09T21:30:49;16.40;93.70
40816;DHT22;26535;48.788;9.214;2022-09-09T21:33:16;16.30;93.90
40816;DHT22;26535;48.788;9.214;2022-09-09T21:35:43;16.20;94.30
40816;DHT22;26535;48.788;9.214;2022-09-09T21:38:17;16.10;94.60
40816;DHT22;26535;48.788;9.214;2022-09-09T21:40:43;16.10;94.60
40816;DHT22;26535;48.788;9.214;2022-09-09T21:43:12;16.10;94.60
40816;DHT22;26535;48.788;9.214;2022-09-09T21:45:42;16.10;94.80
40816;DHT22;26535;48.788;9.214;2022-09-09T21:48:11;16.00;94.90
40816;DHT22;26535;48.788;9.214;2022-09-09T21:50:37;16.00;95.00
40816;DHT22;26535;48.788;9.214;2022-09-09T21:53:03;15.90;95.10
40816;DHT22;26535;48.788;9.214;2022-09-09T21:55:35;16.00;95.40
40816;DHT22;26535;48.788;9.214;2022-09-09T21:58:02;16.00;95.30
40816;DHT22;26535;48.788;9.214;2022-09-09T22:00:28;16.00;95.40
40816;DHT22;26535;48.788;9.214;2022-09-09T22:02:54;16.10;95.30
40816;DHT22;26535;48.788;9.214;2022-09-09T22:05:20;16.10;95.40
40816;DHT22;26535;48.788;9.214;2022-09-09T22:07:45;16.10;95.40
40816;DHT22;26535;48.788;9.214;2022-09-09T22:10:11;16.10;95.60
40816;DHT22;26535;48.788;9.214;2022-09-09T22:12:37;16.20;95.60
40816;DHT22;26535;48.788;9.214;2022-09-09T22:15:04;16.20;95.50
40816;DHT22;26535;48.788;9.214;2022-09-09T22:17:32;16.20;95.60
40816;DHT22;26535;48.788;9.214;2022-09-09T22:19:58;16.20;95.80
40816;DHT22;26535;48.788;9.214;2022-09-09T22:22:24;16.20;95.40
40816;DHT22;26535;48.788;9.214;2022-09-09T22:24:50;16.20;95.80
40816;DHT22;26535;48.788;9.214;2022-09-09T22:27:16;16.30;95.40
40816;DHT22;26535;48.788;9.214;2022-09-09T22:29:42;16.30;95.50
40816;DHT22;26535;48.788;9.214;2022-09-09T22:32:08;16.30;95.70
40816;DHT22;26535;48.788;9.214;2022-09-09T22:34:35;16.40;95.60
40816;DHT22;26535;48.788;9.214;2022-09-09T22:37:02;16.50;95.60
40816;DHT22;26535;48.788;9.214;2022-09-09T22:39:28;16.50;95.60
40816;DHT22;26535;48.788;9.214;2022-09-09T22:41:54;16.60;95.50
40816;DHT22;26535;48.788;9.214;2022-09-09T22:44:24;16.60;95.60
40816;DHT22;26535;48.788;9.214;2022-09-09T22:46:51;16.60;95.60
40816;DHT22;26535;48.788;9.214;2022-09-09T22:49:17;16.50;95.70
40816;DHT22;26535;48.788;9.214;2022-09-09T22:51:43;16.50;95.80
40816;DHT22;26535;48.788;9.214;2022-09-09T22:54:09;16.70;95.50
40816;DHT22;26535;48.788;9.214;2022-09-09T22:56:35;16.80;95.50
40816;DHT22;26535;48.788;9.214;2022-09-09T22:59:00;16.90;95.20
